Ana Sayfa
METAR-TAF:

METAR-TAF

Havaalanları :

Groote Eylandt, Avustralya

Enlem: 13-58-30S, Boylam: 136-27-36E, yükseklik: 16 m

Güncel hava durumu gözlemi

Rapor saat 21:30 UTC de 32 dakika önce yapıldı.
Sakin rüzgar
Sıcaklık 19°C
Nem 100%
Basınç 1011 hPa
Görüş mesafesi 10 km veya daha fazla
400 ft yükseklikte çok bulutlu

METAR: YGTE 052130Z AUTO 00000KT 9999 // OVC004 19/19 Q1011

Saat: 07:32 (22:02 UTC)


TAF: eksik

4.000'den fazla havaalanı için hava durumu gözlemleri ve tahminleri (METAR ve TAF raporları).

Kullanılabilir istasyonlar harita üzerinde sarı ve kırmızı noktalarla gösterilir.

İstasyonun adını görmek için fareyi noktanın üzerinde gezdirin.

Sonrasında hava gözlem ve tahminlerini görmek için tıklayın.

Haritayı değiştirmek için: yaklaştırmak için siyah artı işaretli yeşil düğmeye ve uzaklaştırmak için de eksi işaretli düğmeye hızla tıklayın; bitişik haritalar için yeşil okları kullanın.


METAR-TAF: